KPOY

Powell Municipal Airport

Powell, Wyoming, USA
METAR KPOY 232315Z AUTO 14006KT 10SM CLR M03/M11 A3014 RMK AO2
Observed Flight Rules
Jan-23 @ 23:15 UTC (28 minutes ago) Visual Flight Rules
Wind Visibility Clouds
140° at 6 knots 10 miles
  • Clear skies
Temperatures Readings
Current -3°C / 27°F
Dewpoint -11°C / 12°F
Humidity 54%
Altimeter 30.14" Hg
Pressure 1021 hPa
Elevation 1552
METAR KPOY 232315Z AUTO 14006KT 10SM CLR M03/M11 A3014 RMK AO2
Observed Flight Rules
Jan-23 @ 23:15 UTC
(28 minutes ago)
VFR
Wind Visibility
140° at 6 knots 10 miles
Clouds
  • Clear skies
Temperature Dewpoint
-3°C / 27°F -11°C / 12°F
Humidity Altimeter Pressure
54% 30.14" Hg 1021 hPa